createdAt,value
2022-10-11T00:02:17.614Z,101957.28
2022-10-11T00:04:45.826Z,101970.13
2022-10-11T00:07:13.463Z,101959.84
2022-10-11T00:09:41.128Z,101970.34
2022-10-11T00:12:08.929Z,101978.94
2022-10-11T00:14:36.650Z,101972.94
2022-10-11T00:17:04.556Z,101976.38
2022-10-11T00:19:33.605Z,101988.44
2022-10-11T00:22:01.339Z,101991.00
2022-10-11T00:24:29.211Z,101995.41
2022-10-11T00:26:56.927Z,101992.78
2022-10-11T00:29:24.754Z,102003.06
2022-10-11T00:31:52.442Z,101998.78
2022-10-11T00:34:20.095Z,101950.47
2022-10-11T00:36:49.154Z,102010.78
2022-10-11T00:39:16.917Z,101981.53
2022-10-11T00:41:44.741Z,102010.06
2022-10-11T00:44:15.190Z,102013.53
2022-10-11T00:46:47.073Z,101979.97
2022-10-11T00:49:20.691Z,102016.16
2022-10-11T00:51:54.099Z,102025.63
2022-10-11T00:54:25.271Z,102022.25
2022-10-11T00:56:57.368Z,102031.69
2022-10-11T00:59:28.794Z,102027.47
2022-10-11T01:01:57.007Z,102030.06
2022-10-11T01:04:24.861Z,102009.34
2022-10-11T01:06:55.704Z,102036.91
2022-10-11T01:09:23.940Z,102029.16
2022-10-11T01:11:54.316Z,102028.25
2022-10-11T01:14:38.848Z,102031.69
2022-10-11T01:17:19.783Z,102025.66
2022-10-11T01:20:03.601Z,102017.06
2022-10-11T01:23:10.499Z,102043.81
2022-10-11T01:25:48.772Z,102042.88
2022-10-11T01:28:28.850Z,102048.03
2022-10-11T01:31:05.471Z,102037.78
2022-10-11T01:33:40.650Z,102034.25
2022-10-11T01:36:15.293Z,102042.88
2022-10-11T01:38:48.442Z,102036.78
2022-10-11T01:41:20.448Z,102035.06
2022-10-11T01:43:49.451Z,102044.63
2022-10-11T01:46:20.690Z,102046.22
2022-10-11T01:48:50.101Z,102044.56
2022-10-11T01:51:23.055Z,102032.50
2022-10-11T01:54:02.826Z,102037.72
2022-10-11T01:56:49.503Z,102049.03
2022-10-11T01:59:28.441Z,102040.44
2022-10-11T02:02:11.961Z,102060.28
2022-10-11T02:04:44.852Z,102055.13
2022-10-11T02:07:21.176Z,102063.78
2022-10-11T02:09:54.014Z,102062.88
2022-10-11T02:12:28.958Z,102066.34
2022-10-11T02:14:58.733Z,102069.78
2022-10-11T02:17:33.002Z,102068.06
2022-10-11T02:20:04.952Z,102071.50
2022-10-11T02:22:35.191Z,102070.66
2022-10-11T02:25:06.896Z,102073.25
2022-10-11T02:27:36.945Z,102071.53
2022-10-11T02:30:08.331Z,102081.03
2022-10-11T02:32:41.140Z,102079.31
2022-10-11T02:35:10.577Z,102087.06
2022-10-11T02:37:46.334Z,102082.75
2022-10-11T02:40:20.949Z,102089.66
2022-10-11T02:42:54.618Z,102087.06
2022-10-11T02:45:26.859Z,102081.88
2022-10-11T02:47:56.229Z,102065.47
2022-10-11T02:50:24.420Z,102081.03
2022-10-11T02:52:52.058Z,102080.19
2022-10-11T02:55:19.936Z,102087.03
2022-10-11T02:57:47.607Z,102094.84
2022-10-11T03:00:16.293Z,102068.94
2022-10-11T03:02:43.925Z,102091.41
2022-10-11T03:05:12.955Z,102092.25
2022-10-11T03:07:40.656Z,102095.72
2022-10-11T03:10:08.994Z,102099.16
2022-10-11T03:12:36.681Z,102113.84
2022-10-11T03:15:04.767Z,102113.84
2022-10-11T03:17:36.718Z,102119.00
2022-10-11T03:20:05.808Z,102118.13
2022-10-11T03:22:34.963Z,102116.41
2022-10-11T03:25:04.422Z,102119.00
2022-10-11T03:27:32.855Z,102122.47
2022-10-11T03:30:00.596Z,102129.38
2022-10-11T03:32:28.706Z,102130.09
2022-10-11T03:34:56.439Z,102125.00
2022-10-11T03:37:25.181Z,102138.84
2022-10-11T03:39:54.251Z,102149.25
2022-10-11T03:42:22.005Z,102157.88
2022-10-11T03:44:51.904Z,102139.69
2022-10-11T03:47:19.872Z,102155.22
2022-10-11T03:49:47.556Z,102159.53
2022-10-11T03:52:15.230Z,102152.59
2022-10-11T03:54:43.093Z,102169.91
2022-10-11T03:57:12.180Z,102169.91
2022-10-11T03:59:39.877Z,102171.63
2022-10-11T04:02:07.690Z,102182.88
2022-10-11T04:04:35.791Z,102170.66
2022-10-11T04:07:03.504Z,102167.22
2022-10-11T04:09:31.330Z,102169.84
2022-10-11T04:11:59.233Z,102171.53
2022-10-11T04:14:28.445Z,102171.63
2022-10-11T04:17:00.142Z,102178.50
2022-10-11T04:19:28.469Z,102179.28
2022-10-11T04:21:56.143Z,102179.22
2022-10-11T04:24:23.905Z,102190.38
2022-10-11T04:26:51.581Z,102190.50
2022-10-11T04:29:19.440Z,102194.03
2022-10-11T04:31:48.501Z,102194.00
2022-10-11T04:34:16.485Z,102200.94
2022-10-11T04:36:49.593Z,102202.75
2022-10-11T04:39:17.627Z,102208.69
2022-10-11T04:41:45.354Z,102201.00
2022-10-11T04:44:13.081Z,102205.16
2022-10-11T04:46:40.789Z,102211.03
2022-10-11T04:49:09.914Z,102170.28
2022-10-11T04:51:37.909Z,102212.78
2022-10-11T04:54:05.682Z,102214.63
2022-10-11T04:56:33.540Z,102219.88
2022-10-11T04:59:01.369Z,102220.66
2022-10-11T05:01:29.177Z,102231.94
2022-10-11T05:03:56.933Z,102227.59
2022-10-11T05:06:25.959Z,102233.63
2022-10-11T05:08:53.753Z,102237.88
2022-10-11T05:11:21.477Z,102222.97
2022-10-11T05:13:49.146Z,102237.72
2022-10-11T05:16:17.701Z,102240.47
2022-10-11T05:18:45.877Z,102240.38
2022-10-11T05:21:17.945Z,102205.06
2022-10-11T05:23:48.532Z,102247.53
2022-10-11T05:26:17.130Z,102255.25
2022-10-11T05:28:45.167Z,102262.88
2022-10-11T05:31:13.036Z,102267.97
2022-10-11T05:33:40.713Z,102262.81
2022-10-11T05:36:09.522Z,102258.50
2022-10-11T05:38:38.050Z,102257.91
2022-10-11T05:41:09.086Z,102264.53
2022-10-11T05:43:37.449Z,102171.66
2022-10-11T05:46:05.748Z,102275.84
2022-10-11T05:48:33.662Z,102274.19
2022-10-11T05:51:02.988Z,102276.59
2022-10-11T05:53:30.960Z,102276.53
2022-10-11T05:55:59.033Z,102270.44
2022-10-11T05:58:28.568Z,102283.41
2022-10-11T06:00:56.981Z,102288.63
2022-10-11T06:03:25.166Z,102281.63
2022-10-11T06:05:56.739Z,102299.22
2022-10-11T06:08:24.998Z,102288.78
2022-10-11T06:10:52.756Z,102294.03
2022-10-11T06:13:20.408Z,102303.56
2022-10-11T06:15:49.453Z,102304.53
2022-10-11T06:18:17.166Z,102311.59
2022-10-11T06:20:44.879Z,102310.88
2022-10-11T06:23:12.577Z,102319.53
2022-10-11T06:25:40.282Z,102325.63
2022-10-11T06:28:08.021Z,102328.19
2022-10-11T06:30:35.787Z,102318.72
2022-10-11T06:33:05.275Z,102322.19
2022-10-11T06:35:32.997Z,102317.69
2022-10-11T06:38:00.685Z,102307.25
2022-10-11T06:40:28.446Z,102311.50
2022-10-11T06:42:56.247Z,102315.91
2022-10-11T06:45:24.037Z,102327.16
2022-10-11T06:47:51.803Z,102336.03
2022-10-11T06:50:40.619Z,102341.19
2022-10-11T06:53:09.277Z,102345.50
2022-10-11T06:55:37.132Z,102342.06
2022-10-11T06:58:04.854Z,102340.25
2022-10-11T07:00:32.609Z,102342.06
2022-10-11T07:03:00.375Z,102353.31
2022-10-11T07:05:32.031Z,102347.09
2022-10-11T07:07:59.868Z,102348.88
2022-10-11T07:10:27.747Z,102356.75
2022-10-11T07:12:55.461Z,102357.66
2022-10-11T07:15:23.215Z,102263.38
2022-10-11T07:17:50.886Z,102359.38
2022-10-11T07:20:18.787Z,102356.75
2022-10-11T07:22:47.897Z,102377.56
2022-10-11T07:25:15.658Z,102376.50
2022-10-11T07:27:43.430Z,102371.22
2022-10-11T07:30:12.115Z,102368.38
2022-10-11T07:32:39.820Z,102370.97
2022-10-11T07:35:08.021Z,102369.75
2022-10-11T07:37:35.715Z,102363.66
2022-10-11T07:40:06.967Z,102367.53
2022-10-11T07:42:34.710Z,102363.06
2022-10-11T07:45:02.558Z,102373.84
2022-10-11T07:47:30.235Z,102377.69
2022-10-11T07:49:58.033Z,102377.59
2022-10-11T07:52:25.744Z,102371.13
2022-10-11T07:54:53.412Z,102381.63
2022-10-11T07:57:22.545Z,102379.72
2022-10-11T07:59:50.530Z,102381.03
2022-10-11T08:02:18.416Z,102388.78
2022-10-11T08:04:46.117Z,102369.72
2022-10-11T08:07:13.779Z,102369.88
2022-10-11T08:09:41.699Z,102375.50
2022-10-11T08:12:09.416Z,102363.09
2022-10-11T08:14:38.642Z,102365.47
2022-10-11T08:17:06.368Z,102339.28
2022-10-11T08:19:34.140Z,102368.91
2022-10-11T08:22:02.128Z,102366.88
2022-10-11T08:24:31.066Z,102320.56
2022-10-11T08:27:01.288Z,102372.94
2022-10-11T08:29:28.908Z,102364.75
2022-10-11T08:31:58.390Z,102363.19
2022-10-11T08:34:26.207Z,102368.06
2022-10-11T08:36:53.893Z,102361.25
2022-10-11T08:39:21.564Z,102373.22
2022-10-11T08:41:54.235Z,102371.16
2022-10-11T08:44:58.731Z,102373.75
2022-10-11T08:47:32.335Z,102359.72
2022-10-11T08:50:01.527Z,102393.63
2022-10-11T08:52:34.788Z,102402.81
2022-10-11T08:55:08.452Z,102407.03
2022-10-11T08:57:38.466Z,102420.09
2022-10-11T09:00:08.688Z,102419.66
2022-10-11T09:03:07.505Z,102387.28
2022-10-11T09:05:37.351Z,102420.50
2022-10-11T09:08:11.655Z,102382.94
2022-10-11T09:10:59.969Z,102419.41
2022-10-11T09:13:52.362Z,102419.84
2022-10-11T09:16:32.563Z,102429.88
2022-10-11T09:19:39.050Z,102427.94
2022-10-11T09:22:13.098Z,102432.44
2022-10-11T09:24:58.144Z,102439.09
2022-10-11T09:27:57.303Z,102438.56
2022-10-11T09:30:20.826Z,102437.19
2022-10-11T09:32:55.255Z,102441.41
2022-10-11T09:35:24.425Z,102446.75
2022-10-11T09:38:01.814Z,102438.28
2022-10-11T09:40:44.625Z,102444.91
2022-10-11T09:43:13.138Z,102440.72
2022-10-11T09:45:49.132Z,102446.13
2022-10-11T09:48:21.700Z,102442.53
2022-10-11T09:50:52.487Z,102420.16
2022-10-11T09:53:21.940Z,102446.53
2022-10-11T09:55:54.266Z,102454.53
2022-10-11T09:58:31.063Z,102450.41
2022-10-11T10:01:07.666Z,102449.66
2022-10-11T10:03:37.455Z,102448.88
2022-10-11T10:06:09.659Z,102448.97
2022-10-11T10:08:37.840Z,102460.53
2022-10-11T10:11:08.261Z,102461.66
2022-10-11T10:13:43.198Z,102457.19
2022-10-11T10:16:22.022Z,102455.75
2022-10-11T10:18:53.608Z,102454.44
2022-10-11T10:21:29.585Z,102446.84
2022-10-11T10:24:00.085Z,102452.66
2022-10-11T10:26:28.508Z,102455.34
2022-10-11T10:29:02.856Z,102454.44
2022-10-11T10:31:55.373Z,102460.09
2022-10-11T10:34:30.780Z,102406.88
2022-10-11T10:37:04.888Z,102457.38
2022-10-11T10:39:40.123Z,102456.88
2022-10-11T10:42:14.849Z,102451.28
2022-10-11T10:44:43.081Z,102459.38
2022-10-11T10:47:20.824Z,102452.78
2022-10-11T10:49:58.254Z,102454.09
2022-10-11T10:52:47.470Z,102448.16
2022-10-11T10:55:25.210Z,102371.41
2022-10-11T10:58:06.410Z,102461.00
2022-10-11T11:00:41.838Z,102457.81
2022-10-11T11:03:17.186Z,102456.66
2022-10-11T11:05:51.446Z,102450.84
2022-10-11T11:08:36.206Z,102454.88
2022-10-11T11:11:12.196Z,102447.97
2022-10-11T11:13:48.381Z,102455.59
2022-10-11T11:16:25.068Z,102460.00
2022-10-11T11:18:59.282Z,102452.88
2022-10-11T11:21:41.553Z,102462.00
2022-10-11T11:24:17.547Z,102460.31
2022-10-11T11:26:53.448Z,102450.16
2022-10-11T11:29:39.439Z,102456.53
2022-10-11T11:32:17.762Z,102415.50
2022-10-11T11:34:49.048Z,102461.09
2022-10-11T11:37:26.223Z,102457.34
2022-10-11T11:39:58.685Z,102459.63
2022-10-11T11:42:32.153Z,102461.38
2022-10-11T11:45:06.645Z,102454.00
2022-10-11T11:47:37.558Z,102458.84
2022-10-11T11:50:20.770Z,102460.38
2022-10-11T11:52:51.440Z,102438.81
2022-10-11T11:55:27.866Z,102472.63
2022-10-11T11:58:07.257Z,102470.81
2022-10-11T12:00:43.690Z,102473.44
2022-10-11T12:03:17.458Z,102471.72
2022-10-11T12:06:27.103Z,102476.34
2022-10-11T12:09:05.065Z,102483.44
2022-10-11T12:11:45.680Z,102483.66
2022-10-11T12:14:24.880Z,102471.50
2022-10-11T12:17:17.161Z,102486.91
2022-10-11T12:20:03.227Z,102478.47
2022-10-11T12:23:00.168Z,102484.31
2022-10-11T12:25:41.110Z,102476.41
2022-10-11T12:29:00.523Z,102481.44
2022-10-11T12:31:30.811Z,102483.28
2022-10-11T12:34:21.108Z,102480.66
2022-10-11T12:36:50.354Z,102481.31
2022-10-11T12:39:52.752Z,102476.72
2022-10-11T12:42:31.176Z,102472.38
2022-10-11T12:45:35.105Z,102472.31
2022-10-11T12:48:14.060Z,102470.75
2022-10-11T12:50:58.524Z,102477.28
2022-10-11T12:54:21.481Z,102471.50
2022-10-11T12:56:49.839Z,102470.38
2022-10-11T12:59:20.541Z,102455.31
2022-10-11T13:01:52.594Z,102454.06
2022-10-11T13:04:23.330Z,102449.19
2022-10-11T13:06:54.284Z,102452.28
2022-10-11T13:09:29.703Z,102450.44
2022-10-11T13:12:04.073Z,102449.66
2022-10-11T13:14:37.653Z,102456.25
2022-10-11T13:17:09.265Z,102450.63
2022-10-11T13:22:19.119Z,102439.34
2022-10-11T13:24:46.871Z,102452.75
2022-10-11T13:27:20.296Z,102452.81
2022-10-11T13:29:50.069Z,102447.16
2022-10-11T13:32:24.280Z,102440.75
2022-10-11T13:37:30.659Z,102439.91
2022-10-11T13:39:58.761Z,102451.34
2022-10-11T13:42:30.658Z,102447.78
2022-10-11T13:44:59.520Z,102399.84
2022-10-11T13:47:31.092Z,102403.38
2022-10-11T13:50:04.232Z,102448.31
2022-10-11T13:52:32.102Z,102439.94
2022-10-11T13:55:22.876Z,102449.16
2022-10-11T13:57:52.236Z,102436.19
2022-10-11T14:00:28.723Z,102446.13
2022-10-11T14:03:01.002Z,102437.09
2022-10-11T14:05:32.561Z,102449.72
2022-10-11T14:08:03.335Z,102441.41
2022-10-11T14:10:31.609Z,102442.00
2022-10-11T14:13:06.484Z,102442.78
2022-10-11T14:15:36.242Z,102440.19
2022-10-11T14:18:34.529Z,102431.72
2022-10-11T14:21:27.332Z,102439.06
2022-10-11T14:23:57.165Z,102434.31
2022-10-11T14:26:27.320Z,102429.00
2022-10-11T14:28:59.150Z,102433.94
2022-10-11T14:31:27.995Z,102432.22
2022-10-11T14:33:57.696Z,102436.25
2022-10-11T14:36:26.331Z,102435.72
2022-10-11T14:38:54.580Z,102440.13
2022-10-11T14:41:22.296Z,102440.03
2022-10-11T14:43:50.229Z,102434.78
2022-10-11T14:46:23.974Z,102435.09
2022-10-11T14:48:56.748Z,102429.31
2022-10-11T14:51:32.257Z,102437.41
2022-10-11T14:54:00.057Z,102436.72
2022-10-11T14:56:27.757Z,102438.16
2022-10-11T14:58:55.596Z,102439.94
2022-10-11T15:01:23.448Z,102427.63
2022-10-11T15:03:51.397Z,102441.75
2022-10-11T15:06:21.457Z,102437.88
2022-10-11T15:08:51.027Z,102445.53
2022-10-11T15:11:21.241Z,102431.28
2022-10-11T15:13:49.759Z,102442.34
2022-10-11T15:16:20.427Z,102446.66
2022-10-11T15:18:50.970Z,102451.28
2022-10-11T15:21:20.618Z,102435.56
2022-10-11T15:23:50.206Z,102448.16
2022-10-11T15:26:20.597Z,102455.03
2022-10-11T15:28:49.879Z,102451.28
2022-10-11T15:31:18.456Z,102447.03
2022-10-11T15:33:46.615Z,102448.81
2022-10-11T15:36:17.531Z,102437.34
2022-10-11T15:38:46.368Z,102452.63
2022-10-11T15:41:18.930Z,102451.31
2022-10-11T15:43:49.136Z,102452.34
2022-10-11T15:46:19.709Z,102466.25
2022-10-11T15:48:48.244Z,102464.72
2022-10-11T15:51:16.295Z,102470.03
2022-10-11T15:53:44.390Z,102471.78
2022-10-11T15:56:17.250Z,102455.50
2022-10-11T15:58:45.705Z,102472.22
2022-10-11T16:01:16.012Z,102474.22
2022-10-11T16:03:44.324Z,102455.13
2022-10-11T16:06:13.002Z,102475.03
2022-10-11T16:08:41.498Z,102476.19
2022-10-11T16:11:10.816Z,102468.13
2022-10-11T16:13:40.452Z,102473.25
2022-10-11T16:16:10.557Z,102474.88
2022-10-11T16:18:39.318Z,102475.09
2022-10-11T16:21:09.497Z,102469.09
2022-10-11T16:23:38.013Z,102487.19
2022-10-11T16:26:08.630Z,102484.41
2022-10-11T16:28:37.663Z,102480.34
2022-10-11T16:31:09.239Z,102477.69
2022-10-11T16:33:45.395Z,102490.88
2022-10-11T16:36:28.601Z,102493.31
2022-10-11T16:38:56.357Z,102484.75
2022-10-11T16:41:24.100Z,102488.09
2022-10-11T16:43:52.306Z,102487.66
2022-10-11T16:46:21.916Z,102485.97
2022-10-11T16:48:49.981Z,102485.84
2022-10-11T16:51:17.805Z,102487.88
2022-10-11T16:53:45.593Z,102482.50
2022-10-11T16:56:13.858Z,102487.97
2022-10-11T16:58:41.724Z,102499.78
2022-10-11T17:01:11.264Z,102494.50
2022-10-11T17:03:40.775Z,102485.53
2022-10-11T17:06:09.354Z,102489.69
2022-10-11T17:08:37.459Z,102491.31
2022-10-11T17:11:05.442Z,102494.59
2022-10-11T17:13:33.478Z,102480.88
2022-10-11T17:16:01.248Z,102493.81
2022-10-11T17:18:29.438Z,102490.19
2022-10-11T17:21:03.596Z,102473.03
2022-10-11T17:23:31.887Z,102483.34
2022-10-11T17:26:08.616Z,102480.94
2022-10-11T17:28:39.674Z,102491.38
2022-10-11T17:31:08.897Z,102487.53
2022-10-11T17:33:37.301Z,102482.31
2022-10-11T17:36:15.672Z,102460.00
2022-10-11T17:38:43.545Z,102490.97
2022-10-11T17:41:12.033Z,102490.81
2022-10-11T17:43:40.034Z,102456.47
2022-10-11T17:46:09.183Z,102501.19
2022-10-11T17:48:39.414Z,102482.94
2022-10-11T17:51:10.278Z,102489.06
2022-10-11T17:53:38.795Z,102483.16
2022-10-11T17:56:08.285Z,102480.31
2022-10-11T17:58:38.396Z,102484.03
2022-10-11T18:01:08.425Z,102491.97
2022-10-11T18:03:36.458Z,102480.91
2022-10-11T18:06:05.653Z,102493.84
2022-10-11T18:08:39.992Z,102484.25
2022-10-11T18:11:11.652Z,102479.28
2022-10-11T18:13:42.559Z,102485.41
2022-10-11T18:16:11.495Z,102484.25
2022-10-11T18:18:39.994Z,102496.03
2022-10-11T18:21:07.935Z,102481.16
2022-10-11T18:23:38.289Z,102495.88
2022-10-11T18:26:10.933Z,102488.53
2022-10-11T18:28:38.926Z,102467.19
2022-10-11T18:31:12.617Z,102498.34
2022-10-11T18:33:41.631Z,102495.53
2022-10-11T18:36:11.023Z,102486.69
2022-10-11T18:38:43.873Z,102482.53
2022-10-11T18:41:13.166Z,102496.31
2022-10-11T18:43:41.311Z,102505.56
2022-10-11T18:46:13.559Z,102492.88
2022-10-11T18:48:41.969Z,102500.50
2022-10-11T18:51:12.512Z,102497.75
2022-10-11T18:53:42.304Z,102499.59
2022-10-11T18:56:11.987Z,102481.84
2022-10-11T18:58:41.012Z,102496.53
2022-10-11T19:01:10.731Z,102496.41
2022-10-11T19:03:38.534Z,102497.16
2022-10-11T19:06:08.759Z,102481.78
2022-10-11T19:08:36.664Z,102494.94
2022-10-11T19:11:09.040Z,102469.78
2022-10-11T19:13:37.564Z,102494.91
2022-10-11T19:16:07.139Z,102473.31
2022-10-11T19:18:36.283Z,102426.00
2022-10-11T19:21:09.052Z,102495.97
2022-10-11T19:23:39.338Z,102495.16
2022-10-11T19:26:09.867Z,102499.53
2022-10-11T19:28:37.753Z,102499.56
2022-10-11T19:31:07.881Z,102499.59
2022-10-11T19:33:39.060Z,102503.94
2022-10-11T19:36:07.838Z,102493.56
2022-10-11T19:38:37.139Z,102448.53
2022-10-11T19:41:05.796Z,102494.41
2022-10-11T19:43:35.154Z,102492.72
2022-10-11T19:46:03.645Z,102484.88
2022-10-11T19:48:32.381Z,102497.00
2022-10-11T19:51:05.449Z,102493.50
2022-10-11T19:53:33.707Z,102501.31
2022-10-11T19:56:02.506Z,102503.03
2022-10-11T19:58:30.727Z,102499.56
2022-10-11T20:01:05.230Z,102499.59
2022-10-11T20:03:33.376Z,102498.69
2022-10-11T20:06:01.567Z,102491.72
2022-10-11T20:08:31.352Z,102499.47
2022-10-11T20:10:59.740Z,102503.00
2022-10-11T20:13:33.834Z,102506.38
2022-10-11T20:16:06.315Z,102503.78
2022-10-11T20:18:34.617Z,102500.31
2022-10-11T20:21:04.519Z,102502.84
2022-10-11T20:23:33.009Z,102499.44
2022-10-11T20:26:02.142Z,102496.00
2022-10-11T20:28:31.971Z,102500.28
2022-10-11T20:31:00.867Z,102496.78
2022-10-11T20:33:32.790Z,102501.09
2022-10-11T20:36:02.382Z,102505.41
2022-10-11T20:38:31.249Z,102506.16
2022-10-11T20:40:59.772Z,102500.09
2022-10-11T20:43:27.483Z,102500.88
2022-10-11T20:45:59.779Z,102502.34
2022-10-11T20:48:27.609Z,102500.81
2022-10-11T20:50:56.988Z,102494.81
2022-10-11T20:53:25.501Z,102507.66
2022-10-11T20:55:53.453Z,102407.09
2022-10-11T20:58:21.660Z,102506.91
2022-10-11T21:00:49.792Z,102502.38
2022-10-11T21:03:18.162Z,102508.41
2022-10-11T21:05:46.484Z,102513.56
2022-10-11T21:08:15.619Z,102503.06
2022-10-11T21:10:52.421Z,102511.03
2022-10-11T21:13:20.143Z,102503.38
2022-10-11T21:15:47.890Z,102501.50
2022-10-11T21:18:15.699Z,102512.09
2022-10-11T21:20:44.681Z,102511.69
2022-10-11T21:23:13.584Z,102509.13
2022-10-11T21:25:42.713Z,102505.63
2022-10-11T21:28:10.414Z,102505.53
2022-10-11T21:30:38.067Z,102512.47
2022-10-11T21:33:05.751Z,102512.53
2022-10-11T21:35:33.418Z,102515.88
2022-10-11T21:38:01.645Z,102511.44
2022-10-11T21:40:29.603Z,102521.94
2022-10-11T21:42:58.821Z,102511.69
2022-10-11T21:45:26.590Z,102508.03
2022-10-11T21:47:54.257Z,102514.97
2022-10-11T21:50:22.332Z,102504.59
2022-10-11T21:52:50.010Z,102505.13
2022-10-11T21:55:17.917Z,102496.38
2022-10-11T21:57:45.572Z,102506.13
2022-10-11T22:00:15.539Z,102515.72
2022-10-11T22:02:43.258Z,102508.13
2022-10-11T22:05:11.046Z,102504.66
2022-10-11T22:07:38.710Z,102494.91
2022-10-11T22:10:07.014Z,102503.56
2022-10-11T22:12:34.912Z,102503.56
2022-10-11T22:15:02.734Z,102506.25
2022-10-11T22:17:31.809Z,102498.19
2022-10-11T22:19:59.503Z,102501.59
2022-10-11T22:22:27.156Z,102493.78
2022-10-11T22:24:54.809Z,102500.00
2022-10-11T22:27:22.544Z,102506.25
2022-10-11T22:29:50.385Z,102501.97
2022-10-11T22:32:18.068Z,102512.22
2022-10-11T22:34:47.146Z,102504.47
2022-10-11T22:37:14.814Z,102504.44
2022-10-11T22:39:42.583Z,102508.00
2022-10-11T22:42:10.362Z,102507.25
2022-10-11T22:44:38.074Z,102498.69
2022-10-11T22:47:05.915Z,102496.81
2022-10-11T22:49:33.595Z,102504.47
2022-10-11T22:52:02.651Z,102500.88
2022-10-11T22:54:31.458Z,102504.47
2022-10-11T22:56:59.218Z,102499.94
2022-10-11T22:59:26.923Z,102501.81
2022-10-11T23:01:54.599Z,102496.59
2022-10-11T23:04:22.363Z,102501.84
2022-10-11T23:06:50.333Z,102500.91
2022-10-11T23:09:19.461Z,102487.84
2022-10-11T23:11:47.094Z,102494.97
2022-10-11T23:14:14.993Z,102511.41
2022-10-11T23:16:42.656Z,102501.00
2022-10-11T23:19:10.362Z,102507.22
2022-10-11T23:21:38.032Z,102502.88
2022-10-11T23:24:06.149Z,102508.03
2022-10-11T23:26:35.322Z,102514.91
2022-10-11T23:29:03.152Z,102505.31
2022-10-11T23:31:30.919Z,102507.94
2022-10-11T23:33:59.032Z,102505.41
2022-10-11T23:36:27.281Z,102512.47
2022-10-11T23:38:57.124Z,102511.66
2022-10-11T23:41:27.249Z,102518.69
2022-10-11T23:43:56.428Z,102519.63
2022-10-11T23:46:24.063Z,102518.78
2022-10-11T23:48:51.711Z,102517.06
2022-10-11T23:51:19.556Z,102523.19
2022-10-11T23:53:47.281Z,102518.88
2022-10-11T23:56:14.980Z,102513.66
2022-10-11T23:58:42.668Z,102518.03
